createdAt,value
2019-04-11T00:02:02.540Z,58.11
2019-04-11T00:04:34.944Z,58.31
2019-04-11T00:07:07.864Z,58.29
2019-04-11T00:09:40.882Z,58.20
2019-04-11T00:12:13.120Z,58.30
2019-04-11T00:14:46.789Z,58.35
2019-04-11T00:17:19.600Z,58.49
2019-04-11T00:19:51.901Z,58.46
2019-04-11T00:22:24.332Z,58.44
2019-04-11T00:24:56.646Z,58.48
2019-04-11T00:27:28.950Z,58.54
2019-04-11T00:30:01.932Z,58.38
2019-04-11T00:32:34.300Z,58.35
2019-04-11T00:35:07.184Z,58.55
2019-04-11T00:37:39.472Z,58.50
2019-04-11T00:40:13.079Z,58.42
2019-04-11T00:42:47.540Z,58.52
2019-04-11T00:45:19.880Z,58.48
2019-04-11T00:47:53.181Z,58.46
2019-04-11T00:50:25.510Z,58.41
2019-04-11T00:52:58.033Z,58.51
2019-04-11T00:55:31.354Z,58.46
2019-04-11T00:58:03.726Z,58.45
2019-04-11T01:00:37.100Z,58.48
2019-04-11T01:03:10.036Z,58.56
2019-04-11T01:05:42.615Z,58.69
2019-04-11T01:08:15.698Z,58.62
2019-04-11T01:10:48.032Z,58.75
2019-04-11T01:13:20.956Z,58.72
2019-04-11T01:15:54.435Z,58.68
2019-04-11T01:18:27.708Z,58.70
2019-04-11T01:20:59.989Z,58.91
2019-04-11T01:23:33.233Z,58.96
2019-04-11T01:26:05.851Z,58.95
2019-04-11T01:28:38.591Z,58.97
2019-04-11T01:31:11.594Z,59.03
2019-04-11T01:33:44.297Z,58.97
2019-04-11T01:36:16.647Z,58.87
2019-04-11T01:38:52.628Z,59.24
2019-04-11T01:41:24.876Z,59.27
2019-04-11T01:44:03.330Z,59.43
2019-04-11T01:46:31.961Z,59.31
2019-04-11T01:49:06.175Z,59.39
2019-04-11T01:51:38.454Z,59.53
2019-04-11T01:54:11.209Z,59.51
2019-04-11T01:56:43.922Z,59.52
2019-04-11T01:59:17.355Z,59.69
2019-04-11T02:01:49.986Z,59.79
2019-04-11T02:04:23.679Z,60.06
2019-04-11T02:06:56.283Z,60.18
2019-04-11T02:09:28.631Z,60.38
2019-04-11T02:12:01.667Z,60.33
2019-04-11T02:14:35.749Z,60.41
2019-04-11T02:17:08.540Z,60.61
2019-04-11T02:19:41.259Z,60.79
2019-04-11T02:22:13.850Z,60.87
2019-04-11T02:24:46.292Z,60.84
2019-04-11T02:27:19.060Z,61.01
2019-04-11T02:29:51.391Z,61.15
2019-04-11T02:32:25.415Z,61.23
2019-04-11T02:34:59.368Z,61.14
2019-04-11T02:37:33.717Z,61.44
2019-04-11T02:40:07.541Z,61.62
2019-04-11T02:42:41.052Z,61.72
2019-04-11T02:45:24.990Z,62.00
2019-04-11T02:47:48.729Z,62.20
2019-04-11T02:50:23.835Z,62.36
2019-04-11T02:52:56.643Z,62.45
2019-04-11T02:55:29.511Z,62.45
2019-04-11T02:58:04.013Z,62.88
2019-04-11T03:00:37.643Z,62.56
2019-04-11T03:03:13.034Z,62.73
2019-04-11T03:05:46.777Z,62.98
2019-04-11T03:08:21.745Z,63.13
2019-04-11T03:10:53.757Z,63.16
2019-04-11T03:13:27.351Z,63.55
2019-04-11T03:16:19.251Z,63.67
2019-04-11T03:18:53.063Z,63.93
2019-04-11T03:21:13.684Z,64.04
2019-04-11T03:23:43.404Z,64.05
2019-04-11T03:26:16.854Z,64.38
2019-04-11T03:28:52.183Z,64.70
2019-04-11T03:35:03.139Z,65.14
2019-04-11T03:39:29.205Z,65.39
2019-04-11T03:41:54.792Z,65.21
2019-04-11T03:44:21.288Z,65.47
2019-04-11T03:47:01.354Z,65.77
2019-04-11T03:49:31.651Z,65.87
2019-04-11T03:51:55.637Z,66.13
2019-04-11T03:54:29.481Z,66.18
2019-04-11T03:57:03.570Z,66.42
2019-04-11T03:59:38.443Z,66.50
2019-04-11T04:02:12.356Z,66.61
2019-04-11T04:04:45.579Z,66.59
2019-04-11T04:07:19.173Z,66.85
2019-04-11T04:09:53.643Z,67.16
2019-04-11T04:12:27.175Z,67.14
2019-04-11T04:15:01.416Z,67.26
2019-04-11T04:17:35.272Z,67.34
2019-04-11T04:20:08.833Z,67.49
2019-04-11T04:22:42.077Z,67.41
2019-04-11T04:25:16.658Z,67.62
2019-04-11T04:27:49.309Z,67.70
2019-04-11T04:30:24.779Z,67.82
2019-04-11T04:32:58.423Z,67.81
2019-04-11T04:35:31.707Z,68.11
2019-04-11T04:38:05.177Z,68.33
2019-04-11T04:40:50.988Z,68.39
2019-04-11T04:43:14.463Z,68.47
2019-04-11T04:46:05.115Z,68.55
2019-04-11T04:48:24.275Z,68.49
2019-04-11T04:50:57.248Z,68.74
2019-04-11T04:53:30.786Z,68.69
2019-04-11T04:56:03.265Z,68.74
2019-04-11T04:58:35.546Z,68.98
2019-04-11T05:01:07.962Z,68.84
2019-04-11T05:03:42.389Z,68.92
2019-04-11T05:06:16.346Z,68.86
2019-04-11T05:08:49.314Z,69.11
2019-04-11T05:11:23.154Z,69.07
2019-04-11T05:13:58.702Z,69.00
2019-04-11T05:16:31.063Z,68.97
2019-04-11T05:19:04.485Z,69.25
2019-04-11T05:21:37.246Z,69.23
2019-04-11T05:24:10.340Z,69.06
2019-04-11T05:26:43.895Z,69.08
2019-04-11T05:29:17.365Z,69.00
2019-04-11T05:31:51.129Z,68.88
2019-04-11T05:34:23.797Z,68.83
2019-04-11T05:36:57.519Z,68.70
2019-04-11T05:39:30.323Z,68.51
2019-04-11T05:42:03.165Z,68.49
2019-04-11T05:44:38.196Z,68.42
2019-04-11T05:47:09.409Z,68.19
2019-04-11T05:49:43.298Z,67.90
2019-04-11T05:52:16.150Z,67.59
2019-04-11T05:54:49.741Z,67.58
2019-04-11T05:57:26.854Z,67.41
2019-04-11T05:59:57.796Z,67.22
2019-04-11T06:02:30.145Z,66.66
2019-04-11T06:05:02.848Z,66.62
2019-04-11T06:07:40.032Z,66.28
2019-04-11T06:10:11.213Z,66.17
2019-04-11T06:12:43.533Z,65.03
2019-04-11T06:15:15.908Z,64.31
2019-04-11T06:17:48.264Z,63.79
2019-04-11T06:20:20.485Z,64.16
2019-04-11T06:22:52.744Z,64.22
2019-04-11T06:25:25.782Z,64.48
2019-04-11T06:27:59.932Z,64.65
2019-04-11T06:30:32.587Z,64.67
2019-04-11T06:33:08.032Z,64.78
2019-04-11T06:35:40.333Z,64.80
2019-04-11T06:38:12.633Z,64.69
2019-04-11T06:40:45.997Z,64.70
2019-04-11T06:43:18.415Z,64.60
2019-04-11T06:45:50.755Z,64.54
2019-04-11T06:48:24.570Z,64.52
2019-04-11T06:50:57.664Z,64.41
2019-04-11T06:53:30.179Z,64.15
2019-04-11T06:56:03.506Z,63.72
2019-04-11T06:58:35.880Z,63.74
2019-04-11T07:01:08.156Z,63.34
2019-04-11T07:03:40.639Z,63.10
2019-04-11T07:06:13.361Z,62.69
2019-04-11T07:08:46.925Z,62.63
2019-04-11T07:11:19.919Z,62.53
2019-04-11T07:13:53.292Z,62.02
2019-04-11T07:16:27.819Z,61.94
2019-04-11T07:19:00.631Z,61.54
2019-04-11T07:21:35.445Z,61.20
2019-04-11T07:24:07.903Z,61.08
2019-04-11T07:26:40.115Z,60.63
2019-04-11T07:29:13.063Z,60.23
2019-04-11T07:31:46.305Z,59.59
2019-04-11T07:34:19.470Z,59.23
2019-04-11T07:36:51.886Z,59.23
2019-04-11T07:39:25.640Z,58.54
2019-04-11T07:41:58.506Z,58.82
2019-04-11T07:44:32.232Z,58.46
2019-04-11T07:47:14.541Z,58.35
2019-04-11T07:49:41.035Z,58.11
2019-04-11T07:52:13.559Z,57.90
2019-04-11T07:54:45.775Z,56.83
2019-04-11T07:57:19.706Z,55.90
2019-04-11T07:59:52.004Z,55.93
2019-04-11T08:02:24.748Z,55.20
2019-04-11T08:04:57.657Z,54.85
2019-04-11T08:07:30.496Z,54.83
2019-04-11T08:10:03.117Z,53.65
2019-04-11T08:12:35.490Z,52.63
2019-04-11T08:15:08.962Z,52.44
2019-04-11T08:17:42.965Z,52.36
2019-04-11T08:20:15.756Z,52.49
2019-04-11T08:22:48.051Z,51.84
2019-04-11T08:25:20.909Z,51.79
2019-04-11T08:28:00.030Z,50.96
2019-04-11T08:30:27.608Z,49.51
2019-04-11T08:33:00.343Z,49.47
2019-04-11T08:35:33.648Z,48.95
2019-04-11T08:38:07.908Z,49.72
2019-04-11T08:40:40.254Z,48.80
2019-04-11T08:43:12.962Z,48.84
2019-04-11T08:45:46.471Z,48.67
2019-04-11T08:48:21.142Z,47.17
2019-04-11T08:50:54.647Z,46.99
2019-04-11T08:53:26.916Z,46.32
2019-04-11T08:56:01.054Z,45.85
2019-04-11T08:58:33.170Z,44.96
2019-04-11T09:01:05.851Z,45.25
2019-04-11T09:03:39.952Z,45.64
2019-04-11T09:06:12.575Z,45.41
2019-04-11T09:08:45.187Z,44.00
2019-04-11T09:11:20.405Z,42.35
2019-04-11T09:13:52.787Z,40.35
2019-04-11T09:16:25.776Z,39.75
2019-04-11T09:18:59.615Z,40.05
2019-04-11T09:21:32.327Z,40.57
2019-04-11T09:24:04.661Z,40.53
2019-04-11T09:26:38.067Z,39.97
2019-04-11T09:29:10.364Z,40.26
2019-04-11T09:31:43.879Z,39.92
2019-04-11T09:34:17.524Z,39.61
2019-04-11T09:36:49.902Z,39.88
2019-04-11T09:39:23.406Z,39.77
2019-04-11T09:41:56.618Z,39.92
2019-04-11T09:44:30.912Z,39.79
2019-04-11T09:47:03.648Z,39.03
2019-04-11T09:49:36.253Z,38.64
2019-04-11T09:52:10.128Z,38.51
2019-04-11T09:54:42.429Z,37.65
2019-04-11T09:57:14.934Z,38.15
2019-04-11T09:59:47.692Z,38.34
2019-04-11T10:02:20.978Z,38.05
2019-04-11T10:04:54.360Z,38.12
2019-04-11T10:07:28.103Z,38.05
2019-04-11T10:10:00.640Z,37.46
2019-04-11T10:12:33.981Z,36.73
2019-04-11T10:15:07.188Z,36.68
2019-04-11T10:17:40.621Z,36.15
2019-04-11T10:20:12.935Z,35.92
2019-04-11T10:22:45.991Z,36.84
2019-04-11T10:25:19.102Z,36.88
2019-04-11T10:27:51.548Z,37.32
2019-04-11T10:30:24.063Z,36.63
2019-04-11T10:32:57.359Z,37.25
2019-04-11T10:35:30.370Z,35.74
2019-04-11T10:38:02.686Z,34.90
2019-04-11T10:40:35.051Z,35.27
2019-04-11T10:43:07.761Z,35.26
2019-04-11T10:45:40.011Z,35.44
2019-04-11T10:48:12.288Z,35.24
2019-04-11T10:50:44.559Z,35.10
2019-04-11T10:53:17.983Z,35.30
2019-04-11T10:55:51.651Z,34.98
2019-04-11T10:58:24.726Z,34.70
2019-04-11T11:00:57.691Z,34.93
2019-04-11T11:03:30.698Z,34.27
2019-04-11T11:06:03.219Z,34.92
2019-04-11T11:08:35.559Z,34.66
2019-04-11T11:11:08.159Z,35.02
2019-04-11T11:13:40.837Z,34.30
2019-04-11T11:16:13.913Z,34.22
2019-04-11T11:19:15.554Z,34.35
2019-04-11T11:21:25.006Z,33.70
2019-04-11T11:23:54.456Z,33.27
2019-04-11T11:26:27.893Z,32.43
2019-04-11T11:29:07.140Z,32.69
2019-04-11T11:31:36.263Z,33.24
2019-04-11T11:34:09.240Z,33.60
2019-04-11T11:36:41.851Z,33.76
2019-04-11T11:39:15.144Z,32.98
2019-04-11T11:41:48.872Z,31.51
2019-04-11T11:44:22.375Z,32.66
2019-04-11T11:46:54.775Z,31.70
2019-04-11T11:49:42.508Z,30.57
2019-04-11T11:52:01.913Z,28.91
2019-04-11T11:54:35.646Z,29.03
2019-04-11T11:57:08.678Z,30.07
2019-04-11T11:59:41.069Z,28.41
2019-04-11T12:02:17.377Z,29.14
2019-04-11T12:04:48.519Z,29.17
2019-04-11T12:07:23.104Z,26.30
2019-04-11T12:09:55.470Z,23.56
2019-04-11T12:12:27.646Z,21.69
2019-04-11T12:14:59.871Z,23.10
2019-04-11T12:17:34.776Z,23.06
2019-04-11T12:20:11.032Z,21.88
2019-04-11T12:22:40.241Z,22.53
2019-04-11T12:25:12.542Z,21.69
2019-04-11T12:27:45.726Z,19.11
2019-04-11T12:30:23.433Z,18.74
2019-04-11T12:32:53.380Z,18.07
2019-04-11T12:35:27.298Z,19.16
2019-04-11T12:38:00.826Z,18.49
2019-04-11T12:40:33.663Z,18.32
2019-04-11T12:43:06.484Z,18.20
2019-04-11T12:45:38.724Z,18.56
2019-04-11T12:48:12.167Z,20.59
2019-04-11T12:50:45.040Z,22.22
2019-04-11T12:53:18.078Z,21.95
2019-04-11T12:55:53.247Z,20.00
2019-04-11T12:58:26.134Z,17.66
2019-04-11T13:00:59.018Z,17.72
2019-04-11T13:03:31.956Z,16.88
2019-04-11T13:06:04.846Z,16.93
2019-04-11T13:08:37.690Z,17.02
2019-04-11T13:11:10.534Z,17.37
2019-04-11T13:13:43.551Z,16.62
2019-04-11T13:16:16.409Z,16.05
2019-04-11T13:18:49.318Z,16.74
2019-04-11T13:21:22.411Z,16.72
2019-04-11T13:23:55.726Z,15.80
2019-04-11T13:26:28.549Z,14.57
2019-04-11T13:29:01.572Z,15.83
2019-04-11T13:31:34.460Z,16.15
2019-04-11T13:34:07.339Z,16.29
2019-04-11T13:36:40.137Z,13.87
2019-04-11T13:39:13.076Z,16.11
2019-04-11T13:41:46.047Z,16.41
2019-04-11T13:44:19.329Z,17.28
2019-04-11T13:46:52.320Z,15.90
2019-04-11T13:49:25.556Z,17.04
2019-04-11T13:51:58.690Z,17.38
2019-04-11T13:54:31.621Z,18.66
2019-04-11T13:57:04.620Z,18.28
2019-04-11T13:59:38.220Z,20.06
2019-04-11T14:02:10.525Z,21.41
2019-04-11T14:04:42.813Z,24.31
2019-04-11T14:07:15.759Z,24.00
2019-04-11T14:09:48.106Z,22.70
2019-04-11T14:12:20.751Z,22.64
2019-04-11T14:14:53.285Z,23.69
2019-04-11T14:17:25.860Z,23.69
2019-04-11T14:19:58.447Z,22.22
2019-04-11T14:22:30.764Z,21.98
2019-04-11T14:25:03.107Z,21.15
2019-04-11T14:27:36.549Z,19.77
2019-04-11T14:30:09.378Z,19.85
2019-04-11T14:32:43.420Z,18.98
2019-04-11T14:35:16.206Z,19.57
2019-04-11T14:37:49.148Z,20.32
2019-04-11T14:40:22.289Z,20.85
2019-04-11T14:42:55.229Z,20.70
2019-04-11T14:45:28.481Z,20.50
2019-04-11T14:48:01.380Z,17.87
2019-04-11T14:50:40.631Z,17.92
2019-04-11T14:53:09.579Z,19.16
2019-04-11T14:55:43.062Z,18.71
2019-04-11T14:58:16.576Z,19.13
2019-04-11T15:00:53.761Z,18.36
2019-04-11T15:03:25.668Z,18.87
2019-04-11T15:05:59.827Z,18.79
2019-04-11T15:08:32.736Z,19.13
2019-04-11T15:11:05.619Z,19.73
2019-04-11T15:13:38.037Z,20.02
2019-04-11T15:16:11.066Z,19.28
2019-04-11T15:18:44.718Z,18.94
2019-04-11T15:21:17.307Z,19.51
2019-04-11T15:23:50.478Z,19.05
2019-04-11T15:26:23.297Z,20.90
2019-04-11T15:28:55.936Z,22.69
2019-04-11T15:31:38.740Z,22.98
2019-04-11T15:34:02.420Z,23.99
2019-04-11T15:36:34.728Z,26.16
2019-04-11T15:39:07.068Z,25.30
2019-04-11T15:41:39.811Z,25.60
2019-04-11T15:44:13.995Z,24.54
2019-04-11T15:46:47.859Z,24.02
2019-04-11T15:49:29.610Z,22.84
2019-04-11T15:51:56.021Z,21.74
2019-04-11T15:54:28.452Z,20.94
2019-04-11T15:57:01.333Z,19.80
2019-04-11T15:59:34.249Z,19.76
2019-04-11T16:02:07.085Z,19.86
2019-04-11T16:04:39.989Z,20.00
2019-04-11T16:07:13.330Z,20.66
2019-04-11T16:09:46.221Z,19.78
2019-04-11T16:12:19.168Z,18.84
2019-04-11T16:14:52.305Z,18.91
2019-04-11T16:17:25.578Z,20.29
2019-04-11T16:19:58.073Z,20.34
2019-04-11T16:22:30.429Z,20.47
2019-04-11T16:25:02.740Z,22.71
2019-04-11T16:27:36.628Z,22.27
2019-04-11T16:30:10.982Z,21.43
2019-04-11T16:32:44.132Z,20.99
2019-04-11T16:35:17.728Z,19.97
2019-04-11T16:37:50.724Z,18.16
2019-04-11T16:40:23.815Z,18.37
2019-04-11T16:42:59.051Z,18.91
2019-04-11T16:45:31.303Z,18.70
2019-04-11T16:48:03.493Z,19.39
2019-04-11T16:50:35.856Z,20.60
2019-04-11T16:53:10.685Z,20.96
2019-04-11T16:55:43.446Z,20.37
2019-04-11T16:58:19.457Z,20.61
2019-04-11T17:00:52.644Z,22.13
2019-04-11T17:03:25.083Z,22.87
2019-04-11T17:05:58.429Z,24.00
2019-04-11T17:08:30.653Z,26.05
2019-04-11T17:11:02.990Z,27.43
2019-04-11T17:13:35.210Z,28.54
2019-04-11T17:16:07.500Z,29.60
2019-04-11T17:18:39.765Z,29.92
2019-04-11T17:21:12.040Z,30.55
2019-04-11T17:23:46.851Z,31.32
2019-04-11T17:26:18.280Z,31.75
2019-04-11T17:28:53.702Z,31.81
2019-04-11T17:31:25.934Z,32.08
2019-04-11T17:34:01.487Z,32.44
2019-04-11T17:36:33.548Z,32.80
2019-04-11T17:39:07.037Z,33.19
2019-04-11T17:41:42.032Z,32.69
2019-04-11T17:44:15.089Z,32.53
2019-04-11T17:46:47.325Z,32.68
2019-04-11T17:49:19.892Z,32.84
2019-04-11T17:51:55.928Z,33.07
2019-04-11T17:54:26.756Z,33.69
2019-04-11T17:56:59.386Z,33.82
2019-04-11T17:59:31.725Z,33.93
2019-04-11T18:02:03.988Z,34.27
2019-04-11T18:04:36.520Z,34.37
2019-04-11T18:07:08.911Z,33.96
2019-04-11T18:09:41.232Z,34.06
2019-04-11T18:12:13.458Z,34.16
2019-04-11T18:14:46.216Z,34.45
2019-04-11T18:17:18.520Z,34.34
2019-04-11T18:19:50.863Z,34.44
2019-04-11T18:22:23.192Z,34.11
2019-04-11T18:24:55.507Z,34.23
2019-04-11T18:27:27.830Z,34.31
2019-04-11T18:30:00.441Z,34.75
2019-04-11T18:32:33.910Z,35.55
2019-04-11T18:35:06.123Z,36.32
2019-04-11T18:37:38.380Z,36.55
2019-04-11T18:40:10.664Z,37.19
2019-04-11T18:42:42.700Z,37.47
2019-04-11T18:45:14.970Z,37.48
2019-04-11T18:47:48.445Z,37.87
2019-04-11T18:50:22.702Z,38.03
2019-04-11T18:52:59.152Z,38.16
2019-04-11T18:55:29.114Z,37.90
2019-04-11T18:58:04.149Z,37.89
2019-04-11T19:00:38.374Z,38.02
2019-04-11T19:03:10.332Z,38.14
2019-04-11T19:05:43.639Z,37.65
2019-04-11T19:08:15.943Z,37.01
2019-04-11T19:10:48.170Z,37.32
2019-04-11T19:13:20.495Z,37.13
2019-04-11T19:15:53.745Z,37.40
2019-04-11T19:18:26.093Z,37.30
2019-04-11T19:20:58.516Z,37.12
2019-04-11T19:23:31.165Z,37.33
2019-04-11T19:26:03.409Z,37.55
2019-04-11T19:28:35.702Z,37.73
2019-04-11T19:31:07.997Z,38.18
2019-04-11T19:33:40.475Z,38.47
2019-04-11T19:36:12.883Z,38.64
2019-04-11T19:38:45.351Z,39.23
2019-04-11T19:41:18.343Z,39.71
2019-04-11T19:43:50.705Z,39.95
2019-04-11T19:46:22.911Z,40.75
2019-04-11T19:48:59.141Z,41.31
2019-04-11T19:51:29.608Z,41.85
2019-04-11T19:54:03.284Z,42.27
2019-04-11T19:56:35.931Z,42.89
2019-04-11T19:59:08.120Z,43.45
2019-04-11T20:01:40.392Z,43.91
2019-04-11T20:04:12.640Z,44.28
2019-04-11T20:06:44.955Z,44.70
2019-04-11T20:09:17.286Z,44.99
2019-04-11T20:11:49.577Z,45.44
2019-04-11T20:14:21.873Z,45.58
2019-04-11T20:16:54.106Z,46.17
2019-04-11T20:19:27.380Z,46.26
2019-04-11T20:22:00.325Z,46.60
2019-04-11T20:24:32.633Z,46.63
2019-04-11T20:27:04.902Z,47.13
2019-04-11T20:29:37.123Z,47.34
2019-04-11T20:32:09.496Z,47.03
2019-04-11T20:34:41.719Z,47.38
2019-04-11T20:37:14.050Z,47.44
2019-04-11T20:39:47.455Z,47.71
2019-04-11T20:42:24.039Z,47.80
2019-04-11T20:44:58.290Z,47.89
2019-04-11T20:47:30.179Z,47.88
2019-04-11T20:50:07.339Z,47.88
2019-04-11T20:52:36.587Z,48.13
2019-04-11T20:55:09.861Z,47.92
2019-04-11T20:57:42.250Z,48.04
2019-04-11T21:00:14.477Z,47.70
2019-04-11T21:02:46.986Z,47.88
2019-04-11T21:05:19.282Z,47.84
2019-04-11T21:07:51.533Z,47.75
2019-04-11T21:10:25.231Z,47.76
2019-04-11T21:12:57.517Z,47.62
2019-04-11T21:15:29.972Z,47.50
2019-04-11T21:18:02.340Z,47.31
2019-04-11T21:20:34.815Z,47.35
2019-04-11T21:23:06.890Z,47.47
2019-04-11T21:25:39.200Z,47.43
2019-04-11T21:28:11.815Z,47.23
2019-04-11T21:30:44.085Z,47.14
2019-04-11T21:33:16.415Z,47.08
2019-04-11T21:35:48.723Z,47.04
2019-04-11T21:38:20.955Z,46.71
2019-04-11T21:40:53.617Z,46.50
2019-04-11T21:43:25.968Z,46.49
2019-04-11T21:45:58.390Z,46.49
2019-04-11T21:48:30.618Z,46.61
2019-04-11T21:51:03.198Z,46.43
2019-04-11T21:53:37.011Z,46.69
2019-04-11T21:56:09.384Z,46.47
2019-04-11T21:58:41.687Z,46.69
2019-04-11T22:01:13.914Z,46.89
2019-04-11T22:03:48.399Z,46.66
2019-04-11T22:06:20.675Z,46.77
2019-04-11T22:08:53.138Z,46.92
2019-04-11T22:11:26.664Z,46.57
2019-04-11T22:13:58.944Z,46.63
2019-04-11T22:16:31.328Z,46.72
2019-04-11T22:19:03.915Z,46.69
2019-04-11T22:21:36.198Z,47.02
2019-04-11T22:24:08.427Z,47.15
2019-04-11T22:26:40.904Z,47.21
2019-04-11T22:29:13.532Z,47.07
2019-04-11T22:31:45.832Z,47.30
2019-04-11T22:34:18.256Z,47.33
2019-04-11T22:36:50.688Z,47.60
2019-04-11T22:39:23.068Z,47.75
2019-04-11T22:41:55.360Z,47.75
2019-04-11T22:44:27.735Z,47.95
2019-04-11T22:47:00.157Z,47.87
2019-04-11T22:49:32.382Z,47.99
2019-04-11T22:52:04.826Z,47.87
2019-04-11T22:54:38.277Z,47.81
2019-04-11T22:57:12.215Z,47.91
2019-04-11T22:59:45.322Z,48.11
2019-04-11T23:02:17.741Z,48.19
2019-04-11T23:04:50.097Z,48.69
2019-04-11T23:07:22.397Z,48.54
2019-04-11T23:09:56.951Z,48.70
2019-04-11T23:12:30.269Z,48.81
2019-04-11T23:15:02.554Z,48.84
2019-04-11T23:17:35.143Z,48.64
2019-04-11T23:20:07.433Z,48.84
2019-04-11T23:22:40.093Z,48.89
2019-04-11T23:25:13.816Z,49.25
2019-04-11T23:27:46.128Z,49.44
2019-04-11T23:30:19.085Z,49.20
2019-04-11T23:32:51.796Z,49.08
2019-04-11T23:35:24.237Z,49.37
2019-04-11T23:37:56.454Z,49.47
2019-04-11T23:40:28.824Z,49.38
2019-04-11T23:43:01.090Z,49.60
2019-04-11T23:45:33.308Z,49.57
2019-04-11T23:48:05.570Z,49.79
2019-04-11T23:50:37.849Z,49.68
2019-04-11T23:53:10.053Z,49.84
2019-04-11T23:55:42.332Z,49.85
2019-04-11T23:58:14.531Z,49.61
